createdAt,value
2022-11-16T00:00:34.734Z,99.31
2022-11-16T00:03:36.287Z,99.24
2022-11-16T00:06:37.895Z,99.34
2022-11-16T00:09:39.492Z,98.65
2022-11-16T00:12:41.017Z,98.47
2022-11-16T00:15:42.532Z,98.67
2022-11-16T00:18:44.932Z,99.03
2022-11-16T00:21:46.573Z,98.92
2022-11-16T00:24:48.070Z,99.13
2022-11-16T00:27:49.577Z,99.25
2022-11-16T00:30:59.147Z,99.06
2022-11-16T00:34:00.710Z,99.76
2022-11-16T00:37:02.240Z,99.54
2022-11-16T00:40:04.179Z,99.80
2022-11-16T00:43:05.704Z,99.91
2022-11-16T00:46:07.310Z,99.64
2022-11-16T00:49:09.635Z,99.50
2022-11-16T00:52:11.332Z,99.80
2022-11-16T00:55:12.850Z,99.99
2022-11-16T00:58:15.157Z,99.52
2022-11-16T01:01:19.509Z,99.41
2022-11-16T01:04:21.152Z,99.29
2022-11-16T01:07:22.752Z,99.04
2022-11-16T01:10:26.822Z,99.45
2022-11-16T01:13:28.376Z,99.50
2022-11-16T01:16:29.985Z,99.49
2022-11-16T01:19:32.024Z,99.19
2022-11-16T01:22:37.573Z,99.57
2022-11-16T01:25:39.120Z,99.77
2022-11-16T01:28:40.650Z,99.68
2022-11-16T01:31:42.864Z,99.04
2022-11-16T01:34:44.453Z,99.20
2022-11-16T01:37:57.350Z,99.21
2022-11-16T01:40:59.121Z,99.75
2022-11-16T01:44:06.555Z,99.34
2022-11-16T01:47:17.882Z,99.29
2022-11-16T01:50:20.963Z,99.17
2022-11-16T01:53:26.135Z,98.98
2022-11-16T01:56:32.814Z,99.34
2022-11-16T01:59:45.799Z,98.95
2022-11-16T02:02:52.104Z,99.11
2022-11-16T02:06:32.832Z,99.28
2022-11-16T02:10:05.896Z,99.51
2022-11-16T02:13:28.531Z,99.57
2022-11-16T02:16:48.365Z,99.67
2022-11-16T02:20:24.366Z,100.00
2022-11-16T02:23:50.187Z,99.92
2022-11-16T02:27:27.087Z,99.97
2022-11-16T02:30:29.620Z,100.00
2022-11-16T02:33:36.336Z,100.00
2022-11-16T02:36:42.162Z,100.00
2022-11-16T02:39:47.299Z,100.00
2022-11-16T02:43:04.927Z,100.00
2022-11-16T02:46:16.033Z,100.00
2022-11-16T02:49:19.624Z,100.00
2022-11-16T02:52:23.044Z,100.00
2022-11-16T02:55:27.382Z,100.00
2022-11-16T02:58:30.051Z,100.00
2022-11-16T03:01:37.023Z,100.00
2022-11-16T03:04:47.290Z,100.00
2022-11-16T03:07:55.164Z,100.00
2022-11-16T03:11:23.984Z,100.00
2022-11-16T03:14:43.948Z,100.00
2022-11-16T03:17:50.158Z,100.00
2022-11-16T03:21:04.938Z,100.00
2022-11-16T03:24:07.607Z,100.00
2022-11-16T03:27:36.089Z,100.00
2022-11-16T03:30:43.572Z,100.00
2022-11-16T03:33:53.976Z,100.00
2022-11-16T03:37:00.345Z,100.00
2022-11-16T03:40:04.627Z,100.00
2022-11-16T03:43:08.571Z,100.00
2022-11-16T03:46:10.440Z,100.00
2022-11-16T03:49:12.276Z,100.00
2022-11-16T03:52:17.671Z,100.00
2022-11-16T03:55:19.819Z,100.00
2022-11-16T03:58:21.894Z,100.00
2022-11-16T04:01:23.543Z,100.00
2022-11-16T04:04:44.546Z,100.00
2022-11-16T04:08:07.029Z,100.00
2022-11-16T04:11:37.988Z,100.00
2022-11-16T04:14:58.765Z,100.00
2022-11-16T04:18:22.020Z,100.00
2022-11-16T04:21:47.520Z,100.00
2022-11-16T04:24:56.204Z,100.00
2022-11-16T04:28:14.224Z,100.00
2022-11-16T04:31:38.879Z,100.00
2022-11-16T04:35:04.020Z,100.00
2022-11-16T04:38:05.665Z,100.00
2022-11-16T04:41:29.536Z,100.00
2022-11-16T04:44:54.215Z,100.00
2022-11-16T04:47:58.629Z,100.00
2022-11-16T04:51:05.005Z,100.00
2022-11-16T04:54:07.899Z,100.00
2022-11-16T04:57:09.460Z,100.00
2022-11-16T05:00:11.760Z,100.00
2022-11-16T05:03:14.675Z,100.00
2022-11-16T05:06:19.321Z,100.00
2022-11-16T05:09:21.149Z,100.00
2022-11-16T05:12:25.192Z,100.00
2022-11-16T05:15:30.913Z,100.00
2022-11-16T05:18:34.468Z,100.00
2022-11-16T05:21:37.140Z,100.00
2022-11-16T05:24:38.920Z,100.00
2022-11-16T05:27:41.242Z,100.00
2022-11-16T05:30:45.748Z,100.00
2022-11-16T05:33:52.139Z,100.00
2022-11-16T05:36:54.990Z,100.00
2022-11-16T05:39:57.074Z,100.00
2022-11-16T05:43:07.403Z,100.00
2022-11-16T05:46:14.622Z,100.00
2022-11-16T05:49:16.566Z,100.00
2022-11-16T05:52:19.154Z,100.00
2022-11-16T05:55:20.941Z,100.00
2022-11-16T05:58:23.311Z,100.00
2022-11-16T06:01:26.498Z,100.00
2022-11-16T06:04:28.270Z,100.00
2022-11-16T06:07:30.209Z,100.00
2022-11-16T06:10:33.321Z,100.00
2022-11-16T06:13:35.978Z,100.00
2022-11-16T06:16:37.841Z,100.00
2022-11-16T06:19:42.470Z,100.00
2022-11-16T06:22:44.043Z,100.00
2022-11-16T06:25:46.489Z,100.00
2022-11-16T06:28:48.325Z,100.00
2022-11-16T06:31:50.101Z,100.00
2022-11-16T06:34:51.916Z,100.00
2022-11-16T06:37:53.638Z,100.00
2022-11-16T06:44:20.549Z,100.00
2022-11-16T06:47:30.459Z,100.00
2022-11-16T06:50:32.770Z,100.00
2022-11-16T06:53:34.502Z,100.00
2022-11-16T06:56:37.083Z,100.00
2022-11-16T06:59:38.712Z,100.00
2022-11-16T07:02:40.599Z,100.00
2022-11-16T07:05:45.786Z,100.00
2022-11-16T07:08:51.126Z,100.00
2022-11-16T07:11:58.423Z,100.00
2022-11-16T07:15:00.059Z,100.00
2022-11-16T07:18:07.949Z,100.00
2022-11-16T07:21:14.726Z,100.00
2022-11-16T07:24:17.089Z,100.00
2022-11-16T07:27:18.693Z,100.00
2022-11-16T07:30:23.886Z,100.00
2022-11-16T07:33:35.117Z,100.00
2022-11-16T07:36:59.696Z,100.00
2022-11-16T07:40:02.042Z,100.00
2022-11-16T07:43:05.325Z,100.00
2022-11-16T07:49:49.350Z,100.00
2022-11-16T07:52:55.802Z,100.00
2022-11-16T07:55:57.989Z,100.00
2022-11-16T07:59:01.568Z,100.00
2022-11-16T08:02:10.252Z,100.00
2022-11-16T08:05:13.926Z,100.00
2022-11-16T08:08:16.391Z,100.00
2022-11-16T08:11:18.121Z,100.00
2022-11-16T08:14:19.838Z,100.00
2022-11-16T08:17:24.159Z,100.00
2022-11-16T08:20:27.510Z,100.00
2022-11-16T08:23:30.496Z,100.00
2022-11-16T08:26:33.143Z,100.00
2022-11-16T08:29:40.779Z,100.00
2022-11-16T08:32:45.496Z,100.00
2022-11-16T08:35:48.483Z,100.00
2022-11-16T08:38:51.154Z,100.00
2022-11-16T08:41:54.050Z,100.00
2022-11-16T08:44:55.746Z,100.00
2022-11-16T08:48:03.354Z,100.00
2022-11-16T08:51:17.972Z,100.00
2022-11-16T08:54:28.091Z,100.00
2022-11-16T08:57:29.968Z,100.00
2022-11-16T09:00:34.809Z,100.00
2022-11-16T09:03:37.971Z,100.00
2022-11-16T09:06:39.520Z,100.00
2022-11-16T09:09:41.031Z,100.00
2022-11-16T09:12:42.817Z,100.00
2022-11-16T09:15:44.944Z,100.00
2022-11-16T09:18:48.307Z,100.00
2022-11-16T09:21:50.412Z,100.00
2022-11-16T09:24:51.948Z,100.00
2022-11-16T09:27:55.511Z,100.00
2022-11-16T09:31:01.978Z,100.00
2022-11-16T09:34:03.767Z,100.00
2022-11-16T09:37:05.330Z,100.00
2022-11-16T09:40:07.579Z,100.00
2022-11-16T09:43:28.047Z,100.00
2022-11-16T09:46:35.751Z,100.00
2022-11-16T09:49:47.462Z,100.00
2022-11-16T09:52:51.395Z,100.00
2022-11-16T09:55:56.521Z,100.00
2022-11-16T09:59:27.618Z,100.00
2022-11-16T10:02:43.189Z,100.00
2022-11-16T10:06:01.214Z,100.00
2022-11-16T10:09:02.947Z,100.00
2022-11-16T10:12:21.120Z,100.00
2022-11-16T10:15:56.793Z,100.00
2022-11-16T10:19:53.871Z,100.00
2022-11-16T10:23:11.515Z,100.00
2022-11-16T10:26:32.067Z,100.00
2022-11-16T10:29:55.970Z,100.00
2022-11-16T10:33:08.060Z,100.00
2022-11-16T10:36:15.894Z,100.00
2022-11-16T10:39:20.419Z,100.00
2022-11-16T10:42:34.851Z,100.00
2022-11-16T10:45:43.049Z,100.00
2022-11-16T10:49:16.395Z,100.00
2022-11-16T10:52:18.168Z,100.00
2022-11-16T10:55:21.698Z,100.00
2022-11-16T10:58:23.211Z,100.00
2022-11-16T11:01:27.783Z,100.00
2022-11-16T11:04:32.767Z,100.00
2022-11-16T11:07:38.121Z,100.00
2022-11-16T11:10:42.832Z,100.00
2022-11-16T11:13:44.396Z,100.00
2022-11-16T11:16:45.931Z,100.00
2022-11-16T11:20:16.202Z,100.00
2022-11-16T11:23:19.987Z,100.00
2022-11-16T11:26:35.941Z,100.00
2022-11-16T11:29:42.345Z,99.07
2022-11-16T11:32:44.915Z,99.12
2022-11-16T11:36:06.556Z,98.22
2022-11-16T11:39:28.839Z,98.15
2022-11-16T11:42:30.674Z,98.93
2022-11-16T11:45:45.322Z,98.86
2022-11-16T11:48:55.226Z,98.61
2022-11-16T11:52:03.257Z,97.70
2022-11-16T11:55:07.513Z,97.17
2022-11-16T11:58:18.205Z,96.30
2022-11-16T12:01:28.840Z,95.83
2022-11-16T12:04:58.275Z,96.11
2022-11-16T12:08:02.548Z,97.16
2022-11-16T12:11:39.375Z,96.00
2022-11-16T12:15:13.527Z,96.58
2022-11-16T12:18:14.992Z,95.67
2022-11-16T12:21:19.248Z,96.59
2022-11-16T12:24:47.049Z,95.21
2022-11-16T12:28:09.654Z,94.92
2022-11-16T12:31:48.243Z,94.54
2022-11-16T12:35:44.016Z,93.57
2022-11-16T12:39:09.071Z,93.89
2022-11-16T12:42:29.184Z,92.27
2022-11-16T12:45:52.604Z,90.91
2022-11-16T12:49:24.245Z,91.35
2022-11-16T12:53:23.033Z,90.66
2022-11-16T12:56:34.240Z,92.18
2022-11-16T13:00:01.624Z,91.61
2022-11-16T13:03:12.073Z,91.37
2022-11-16T13:06:20.183Z,91.43
2022-11-16T13:09:26.441Z,91.26
2022-11-16T13:12:30.456Z,91.50
2022-11-16T13:15:35.896Z,91.15
2022-11-16T13:18:41.532Z,88.86
2022-11-16T13:22:02.646Z,89.21
2022-11-16T13:25:17.454Z,88.83
2022-11-16T13:28:37.929Z,88.81
2022-11-16T13:31:53.477Z,90.48
2022-11-16T13:34:57.197Z,90.00
2022-11-16T13:37:58.727Z,90.25
2022-11-16T13:41:31.362Z,90.93
2022-11-16T13:44:33.560Z,91.56
2022-11-16T13:47:37.062Z,90.75
2022-11-16T13:50:38.899Z,90.59
2022-11-16T13:54:43.331Z,90.95
2022-11-16T13:57:24.635Z,90.53
2022-11-16T14:00:35.743Z,91.48
2022-11-16T14:03:39.495Z,92.00
2022-11-16T14:06:43.808Z,91.97
2022-11-16T14:09:48.343Z,91.91
2022-11-16T14:12:56.644Z,92.33
2022-11-16T14:16:19.441Z,91.97
2022-11-16T14:19:49.238Z,92.78
2022-11-16T14:22:58.150Z,93.18
2022-11-16T14:26:02.464Z,94.27
2022-11-16T14:29:27.325Z,94.22
2022-11-16T14:32:43.354Z,94.81
2022-11-16T14:35:52.525Z,95.17
2022-11-16T14:38:54.156Z,95.42
2022-11-16T14:42:00.570Z,95.20
2022-11-16T14:45:11.790Z,94.88
2022-11-16T14:48:17.031Z,94.58
2022-11-16T14:51:24.625Z,94.41
2022-11-16T14:54:26.549Z,94.70
2022-11-16T14:57:28.523Z,95.40
2022-11-16T15:00:30.420Z,95.88
2022-11-16T15:03:38.939Z,96.89
2022-11-16T15:06:47.061Z,96.58
2022-11-16T15:09:52.397Z,96.88
2022-11-16T15:12:55.698Z,96.53
2022-11-16T15:16:15.674Z,96.25
2022-11-16T15:19:17.236Z,95.88
2022-11-16T15:22:19.115Z,96.77
2022-11-16T15:25:26.836Z,96.69
2022-11-16T15:28:31.639Z,96.36
2022-11-16T15:31:34.416Z,96.10
2022-11-16T15:34:39.200Z,96.74
2022-11-16T15:37:40.741Z,96.60
2022-11-16T15:41:05.547Z,96.80
2022-11-16T15:44:14.482Z,96.87
2022-11-16T15:47:17.176Z,96.85
2022-11-16T15:50:19.371Z,97.26
2022-11-16T15:53:39.412Z,97.06
2022-11-16T15:56:41.670Z,97.41
2022-11-16T15:59:48.676Z,97.71
2022-11-16T16:02:51.460Z,97.36
2022-11-16T16:05:54.562Z,98.21
2022-11-16T16:09:06.245Z,99.17
2022-11-16T16:12:22.426Z,98.66
2022-11-16T16:15:36.664Z,99.62
2022-11-16T16:18:45.473Z,99.69
2022-11-16T16:21:47.121Z,99.78
2022-11-16T16:24:48.653Z,100.00
2022-11-16T16:27:50.269Z,100.00
2022-11-16T16:30:52.405Z,100.00
2022-11-16T16:33:55.556Z,100.00
2022-11-16T16:36:57.229Z,100.00
2022-11-16T16:39:58.871Z,100.00
2022-11-16T16:43:00.398Z,100.00
2022-11-16T16:46:03.237Z,100.00
2022-11-16T16:49:04.744Z,100.00
2022-11-16T16:52:07.456Z,100.00
2022-11-16T16:55:09.112Z,100.00
2022-11-16T16:58:13.128Z,100.00
2022-11-16T17:01:14.754Z,100.00
2022-11-16T17:04:16.352Z,100.00
2022-11-16T17:07:18.026Z,100.00
2022-11-16T17:10:19.612Z,100.00
2022-11-16T17:13:21.115Z,100.00
2022-11-16T17:16:23.126Z,100.00
2022-11-16T17:19:24.781Z,100.00
2022-11-16T17:22:26.296Z,100.00
2022-11-16T17:25:27.946Z,100.00
2022-11-16T17:28:29.494Z,100.00
2022-11-16T17:31:31.183Z,100.00
2022-11-16T17:34:33.845Z,100.00
2022-11-16T17:37:35.382Z,100.00
2022-11-16T17:40:37.020Z,100.00
2022-11-16T17:43:39.091Z,100.00
2022-11-16T17:46:40.611Z,100.00
2022-11-16T17:49:42.259Z,100.00
2022-11-16T17:52:43.805Z,100.00
2022-11-16T17:55:45.344Z,100.00
2022-11-16T17:58:47.243Z,100.00
2022-11-16T18:01:49.534Z,100.00
2022-11-16T18:04:51.567Z,100.00
2022-11-16T18:07:53.205Z,100.00
2022-11-16T18:10:54.769Z,100.00
2022-11-16T18:14:00.367Z,100.00
2022-11-16T18:17:01.930Z,100.00
2022-11-16T18:20:04.785Z,100.00
2022-11-16T18:23:06.312Z,100.00
2022-11-16T18:26:13.705Z,100.00
2022-11-16T18:29:18.531Z,100.00
2022-11-16T18:32:20.117Z,100.00
2022-11-16T18:35:21.687Z,100.00
2022-11-16T18:38:23.281Z,100.00
2022-11-16T18:41:27.063Z,100.00
2022-11-16T18:44:28.581Z,100.00
2022-11-16T18:47:30.175Z,100.00
2022-11-16T18:50:31.704Z,100.00
2022-11-16T18:53:33.842Z,100.00
2022-11-16T18:56:36.231Z,100.00
2022-11-16T18:59:38.122Z,100.00
2022-11-16T19:02:39.624Z,100.00
2022-11-16T19:05:41.379Z,100.00
2022-11-16T19:08:43.484Z,100.00
2022-11-16T19:11:45.185Z,100.00
2022-11-16T19:14:46.708Z,100.00
2022-11-16T19:18:19.449Z,100.00
2022-11-16T19:21:14.772Z,100.00
2022-11-16T19:24:16.361Z,100.00
2022-11-16T19:27:17.855Z,100.00
2022-11-16T19:30:19.725Z,100.00
2022-11-16T19:33:21.344Z,100.00
2022-11-16T19:36:24.159Z,100.00
2022-11-16T19:39:26.561Z,100.00
2022-11-16T19:42:28.296Z,100.00
2022-11-16T19:45:29.863Z,100.00
2022-11-16T19:48:34.753Z,100.00
2022-11-16T19:51:36.383Z,100.00
2022-11-16T19:54:37.911Z,100.00
2022-11-16T19:57:39.439Z,100.00
2022-11-16T20:00:40.997Z,100.00
2022-11-16T20:03:42.740Z,100.00
2022-11-16T20:06:44.313Z,100.00
2022-11-16T20:09:50.540Z,100.00
2022-11-16T20:12:56.661Z,100.00
2022-11-16T20:16:01.249Z,100.00
2022-11-16T20:19:03.668Z,100.00
2022-11-16T20:22:05.220Z,100.00
2022-11-16T20:25:06.993Z,100.00
2022-11-16T20:28:09.498Z,100.00
2022-11-16T20:31:16.704Z,100.00
2022-11-16T20:34:20.264Z,100.00
2022-11-16T20:37:21.888Z,100.00
2022-11-16T20:40:23.468Z,100.00
2022-11-16T20:43:24.977Z,100.00
2022-11-16T20:46:29.231Z,100.00
2022-11-16T20:49:30.814Z,100.00
2022-11-16T20:52:32.320Z,100.00
2022-11-16T20:55:33.873Z,100.00
2022-11-16T20:58:35.561Z,100.00
2022-11-16T21:01:37.351Z,100.00
2022-11-16T21:04:38.940Z,100.00
2022-11-16T21:07:41.742Z,100.00
2022-11-16T21:10:44.079Z,100.00
2022-11-16T21:14:05.900Z,100.00
2022-11-16T21:17:07.462Z,100.00
2022-11-16T21:20:26.457Z,100.00
2022-11-16T21:23:31.769Z,100.00
2022-11-16T21:26:34.044Z,100.00
2022-11-16T21:29:35.543Z,100.00
2022-11-16T21:32:37.043Z,100.00
2022-11-16T21:35:38.577Z,100.00
2022-11-16T21:38:40.411Z,100.00
2022-11-16T21:41:41.960Z,100.00
2022-11-16T21:44:43.517Z,100.00
2022-11-16T21:47:45.057Z,100.00
2022-11-16T21:50:46.845Z,100.00
2022-11-16T21:53:48.726Z,100.00
2022-11-16T21:56:50.211Z,100.00
2022-11-16T21:59:51.728Z,100.00
2022-11-16T22:02:53.691Z,100.00
2022-11-16T22:06:14.737Z,100.00
2022-11-16T22:09:16.823Z,100.00
2022-11-16T22:12:18.310Z,100.00
2022-11-16T22:15:19.829Z,100.00
2022-11-16T22:18:21.345Z,100.00
2022-11-16T22:21:22.870Z,100.00
2022-11-16T22:24:24.374Z,100.00
2022-11-16T22:27:25.943Z,100.00
2022-11-16T22:30:27.528Z,100.00
2022-11-16T22:33:29.995Z,100.00
2022-11-16T22:36:31.512Z,100.00
2022-11-16T22:39:33.075Z,100.00
2022-11-16T22:42:34.589Z,100.00
2022-11-16T22:45:36.123Z,100.00
2022-11-16T22:48:39.658Z,100.00
2022-11-16T22:51:41.178Z,100.00
2022-11-16T22:54:42.691Z,100.00
2022-11-16T22:57:44.194Z,100.00
2022-11-16T23:00:45.691Z,100.00
2022-11-16T23:03:47.784Z,100.00
2022-11-16T23:06:49.519Z,100.00
2022-11-16T23:09:51.133Z,100.00
2022-11-16T23:13:11.902Z,100.00
2022-11-16T23:16:13.412Z,100.00
2022-11-16T23:19:35.979Z,100.00
2022-11-16T23:22:56.384Z,100.00
2022-11-16T23:26:16.393Z,100.00
2022-11-16T23:29:17.937Z,100.00
2022-11-16T23:32:19.438Z,100.00
2022-11-16T23:35:21.403Z,100.00
2022-11-16T23:38:22.918Z,100.00
2022-11-16T23:41:43.175Z,100.00
2022-11-16T23:44:44.711Z,100.00
2022-11-16T23:47:46.239Z,100.00
2022-11-16T23:50:47.895Z,100.00
2022-11-16T23:53:53.320Z,100.00
2022-11-16T23:56:54.917Z,100.00
2022-11-16T23:59:56.443Z,100.00
